Airfield :
LOGIN :

Register | Disclaimer

   EN    FR    IT 

 










Legend :    VFR   Marginal VFR   IFR   Intensive IFR   Very Intensive IFR
Visi :
Ceiling :
>= 8 km
>= 3000ft
5 to 8 km
1000 to 3000 ft
1500m to 5 km
500 to 1000 ft
800 to 1500m
200 to 500 ft
< 800m
< 200 ft
Symbols :   Thunderstorms  Fog  Heavy snow  Heavy precipitations  Wind > 20 kt
SIGMETs :     Misc.  Thunderstorms  Icing  Turbulence  Mountain Waves  Volcanic Ashes







- Airport Elevation : 50 ft
- IATA code : KOI
- Download approach charts


EGPA - Kirkwall

CURRENT METAR :
  • 191450Z 25015KT 9999 FEW014 SCT025 BKN031 12/10 Q0976

EXPIRED METARs :
  • 191420Z 23017KT 9999 FEW014 BKN031 13/11 Q0975
  • 191350Z 21022G33KT 9999 FEW006 SCT022 12/11 Q0974 RERA
  • 191320Z 16031G49KT 9000 RA FEW004 BKN005 BKN018 13/12 Q0974
  • 191250Z 12019G31KT 8000 -RA FEW004 BKN005 BKN012 11/11 Q0976 RERA
  • 191220Z 13021G32KT 4200 +RA FEW004 BKN005 BKN012 11/10 Q0979

TAF TAF EGPA
Valid from the 19 at 15:00 until the 20 at 00:00 UTC


191402Z 1915/1924 20025G40KT 9999 FEW020
BECMG 1915/1918 25025G50KT
PROB30
TEMPO 1915/1924 4000 SHRA BKN012
No reported NOTAMs for that airfield.
2 SIGMETs reported for the Scottish FIR (EGPX) :
 
Severe mountain waves
EGPX SIGMET 10 VALID 191300/191700 EGRR
EGPX SCOTTISH FIR SEV MTW FCST WI N5646 W00124 - N5500 E00108 - N5500 W00530 - N5355 W00530 - N5514 W00847 - N6100 W00250 - N6100 E00000 - N6000 E00000 - N5959 E00002 - N5646 W00124 FL030/250 STNR NC=
Severe turbulence
EGPX SIGMET 09 VALID 191300/191700 EGRR
EGPX SCOTTISH FIR SEV TURB FCST SE OF LINE N5633 W01000 - N6049 E00000 SFC/FL060 STNR NC=



MET'MAP, your aeronautical weather chart ! - Copyright ORBIFLY December 2007 - Disclaimer

ORBIFLY MET'MAP TEAM :

Programming & Development : Alexandra Zaïnal
Concept & Development : Baudouin d'Aumeries
Co-Development & Prog : Marc-Olivier Méhu
Technical & hardware support : Manuel Goepfert

Contact : metmap@orbifly.com




SOURCES & CREDITS :

   NOAA